Time;durP1;ratioP1;P1;durP2;ratioP2;P2;SDS_P1;SDS_P2;PMS_P1;PMS_P2;Temp;Humidity;BMP_temperature;BMP_pressure;BME280_temperature;BME280_humidity;BME280_pressure;Samples;Min_cycle;Max_cycle;Signal;HPM_P1;HPM_P2
2023/10/03 00:00:33;;;;;;;16.90;7.18;;;12.30;99.90;;;;;;5038438;28;20033;-80
2023/10/03 00:03:04;;;;;;;14.18;5.55;;;12.20;99.90;;;;;;5040864;28;20021;-79
2023/10/03 00:05:31;;;;;;;11.55;6.13;;;12.20;99.90;;;;;;5040483;28;20390;-80
2023/10/03 00:07:59;;;;;;;9.60;5.82;;;12.10;99.90;;;;;;5040629;28;20021;-80
2023/10/03 00:10:26;;;;;;;12.52;6.03;;;12.10;99.90;;;;;;5056197;28;20022;-79
2023/10/03 00:12:52;;;;;;;15.55;6.68;;;12.10;99.90;;;;;;5056866;28;20022;-79
2023/10/03 00:15:21;;;;;;;11.93;5.45;;;12.10;99.90;;;;;;5056234;28;20041;-80
2023/10/03 00:17:47;;;;;;;12.95;5.82;;;12.00;99.90;;;;;;5041882;28;20028;-80
2023/10/03 00:20:16;;;;;;;11.77;6.68;;;12.00;99.90;;;;;;5058810;28;20026;-80
2023/10/03 00:22:42;;;;;;;14.43;7.60;;;12.10;99.90;;;;;;5057031;28;20410;-79
2023/10/03 00:25:17;;;;;;;11.75;6.13;;;12.10;99.90;;;;;;5053835;28;20038;-78
2023/10/03 00:27:49;;;;;;;11.55;5.90;;;12.00;99.90;;;;;;5039291;28;20296;-80
2023/10/03 00:30:16;;;;;;;13.73;5.35;;;12.00;99.90;;;;;;5054370;28;20030;-77
2023/10/03 00:32:45;;;;;;;10.20;5.50;;;12.00;99.90;;;;;;5054025;28;20025;-79
2023/10/03 00:35:11;;;;;;;7.22;5.10;;;12.00;99.90;;;;;;5053938;28;20089;-78
2023/10/03 00:37:38;;;;;;;10.23;5.35;;;12.00;99.90;;;;;;5054256;28;20029;-79
2023/10/03 00:43:04;;;;;;;10.80;5.70;;;11.90;99.90;;;;;;5037527;28;20029;-78
2023/10/03 00:45:31;;;;;;;9.57;5.55;;;11.90;99.90;;;;;;5039075;28;20465;-80
2023/10/03 00:48:02;;;;;;;13.63;5.35;;;11.90;99.90;;;;;;5039747;28;20024;-77
2023/10/03 00:50:34;;;;;;;9.00;5.13;;;11.90;99.90;;;;;;5064826;22;20034;-82
2023/10/03 00:53:04;;;;;;;7.97;5.65;;;11.80;99.90;;;;;;5012004;28;20043;-82
2023/10/03 00:55:32;;;;;;;8.95;5.15;;;11.80;99.90;;;;;;4997176;28;20503;-82
2023/10/03 01:00:38;;;;;;;12.00;5.43;;;11.90;99.90;;;;;;4997396;28;20034;-82
2023/10/03 01:03:05;;;;;;;15.68;6.55;;;11.90;99.90;;;;;;4995369;28;20030;-82
2023/10/03 01:05:31;;;;;;;16.30;6.97;;;11.90;99.90;;;;;;4995116;28;20034;-82
2023/10/03 01:07:57;;;;;;;18.58;6.65;;;11.90;99.90;;;;;;4995248;28;20105;-82
2023/10/03 01:10:24;;;;;;;16.00;8.48;;;11.90;99.90;;;;;;4993929;28;20511;-82
2023/10/03 01:12:49;;;;;;;14.15;6.45;;;11.90;99.90;;;;;;4995742;28;20487;-82
2023/10/03 01:15:17;;;;;;;16.98;7.20;;;11.90;99.90;;;;;;4996297;28;20030;-82
2023/10/03 01:17:48;;;;;;;18.73;7.20;;;11.90;99.90;;;;;;4995532;28;20113;-82
2023/10/03 01:20:18;;;;;;;14.00;6.93;;;11.90;99.90;;;;;;4995447;28;20073;-82
2023/10/03 01:22:50;;;;;;;16.00;7.07;;;11.90;99.90;;;;;;4995716;28;20058;-82
2023/10/03 01:25:16;;;;;;;22.20;7.60;;;11.90;99.90;;;;;;4996604;28;20030;-82
2023/10/03 01:27:42;;;;;;;16.33;6.18;;;11.80;99.90;;;;;;4995477;28;20540;-82
2023/10/03 01:30:08;;;;;;;20.17;8.90;;;11.80;99.90;;;;;;4996741;28;20022;-82
2023/10/03 01:32:45;;;;;;;20.65;8.05;;;11.80;99.90;;;;;;4996682;28;20508;-82
2023/10/03 01:35:12;;;;;;;17.17;7.03;;;11.80;99.90;;;;;;4995092;28;20117;-82
2023/10/03 01:37:39;;;;;;;18.50;7.32;;;11.70;99.90;;;;;;4995381;28;20034;-82
2023/10/03 01:40:13;;;;;;;16.05;7.30;;;11.70;99.90;;;;;;4995026;28;20026;-81
2023/10/03 01:42:45;;;;;;;14.00;6.63;;;11.80;99.90;;;;;;4995244;28;20118;-82
2023/10/03 01:45:12;;;;;;;17.73;6.63;;;11.90;99.90;;;;;;4994769;28;20189;-82
2023/10/03 01:47:45;;;;;;;17.77;7.43;;;11.90;99.90;;;;;;4996942;28;20046;-82
2023/10/03 01:50:14;;;;;;;13.68;6.53;;;11.90;99.90;;;;;;4994739;28;20240;-82
2023/10/03 01:52:41;;;;;;;15.85;7.22;;;11.90;99.90;;;;;;4996531;28;20167;-83
2023/10/03 01:55:19;;;;;;;16.77;7.47;;;11.90;99.90;;;;;;4995996;28;20022;-83
2023/10/03 01:57:46;;;;;;;14.15;6.88;;;11.90;99.90;;;;;;4996769;28;20500;-83
2023/10/03 02:00:26;;;;;;;11.77;6.45;;;12.00;99.90;;;;;;4996228;28;20026;-83
2023/10/03 02:02:57;;;;;;;13.63;5.88;;;11.90;99.90;;;;;;4997743;28;20512;-83
2023/10/03 02:05:24;;;;;;;12.98;7.43;;;11.90;99.90;;;;;;4997250;28;20501;-82
2023/10/03 02:07:52;;;;;;;15.10;6.80;;;11.90;99.90;;;;;;4995630;28;20125;-83
2023/10/03 02:10:18;;;;;;;12.90;6.57;;;11.80;99.90;;;;;;4995581;28;20033;-83
2023/10/03 02:12:50;;;;;;;17.42;6.90;;;11.80;99.90;;;;;;4994481;28;20073;-83
2023/10/03 02:15:21;;;;;;;17.95;7.47;;;11.80;99.90;;;;;;4994023;28;20129;-83
2023/10/03 02:17:54;;;;;;;16.52;8.30;;;11.90;99.90;;;;;;4994295;28;20481;-83
2023/10/03 02:20:21;;;;;;;16.55;7.65;;;11.90;99.90;;;;;;4993688;28;20032;-83
2023/10/03 02:22:54;;;;;;;15.82;7.80;;;11.80;99.90;;;;;;4996512;28;20089;-83
2023/10/03 02:25:28;;;;;;;18.88;7.65;;;11.80;99.90;;;;;;4994593;28;20121;-83
2023/10/03 02:27:58;;;;;;;17.95;7.85;;;11.80;99.90;;;;;;4995896;28;20029;-83
2023/10/03 02:30:25;;;;;;;19.90;7.45;;;11.80;99.90;;;;;;4994098;28;20030;-83
2023/10/03 02:32:58;;;;;;;20.00;6.70;;;11.80;99.90;;;;;;4995547;28;20045;-83
2023/10/03 02:35:26;;;;;;;11.00;5.97;;;11.90;99.90;;;;;;4994097;28;20443;-83
2023/10/03 02:37:57;;;;;;;13.38;6.55;;;11.80;99.90;;;;;;4994524;28;20373;-83
2023/10/03 02:40:30;;;;;;;15.95;6.65;;;11.90;99.90;;;;;;4996369;28;20109;-83
2023/10/03 02:42:56;;;;;;;19.17;7.50;;;11.80;99.90;;;;;;4995552;28;20106;-83
2023/10/03 02:45:23;;;;;;;16.60;6.45;;;11.80;99.90;;;;;;4993784;28;20054;-83
2023/10/03 02:47:56;;;;;;;14.43;5.57;;;11.80;99.90;;;;;;4994037;28;20146;-83
2023/10/03 02:50:26;;;;;;;13.27;7.03;;;11.80;99.90;;;;;;4995821;28;20030;-83
2023/10/03 02:52:55;;;;;;;11.57;5.75;;;11.80;99.90;;;;;;4994251;28;20026;-83
2023/10/03 02:55:22;;;;;;;16.77;7.45;;;11.70;99.90;;;;;;4995241;28;20079;-83
2023/10/03 02:57:48;;;;;;;12.88;6.82;;;11.70;99.90;;;;;;4995799;28;20030;-83
2023/10/03 03:00:15;;;;;;;11.48;6.55;;;11.70;99.90;;;;;;4993839;28;20049;-82
2023/10/03 03:02:47;;;;;;;10.43;5.53;;;11.70;99.90;;;;;;4995590;28;20027;-83
2023/10/03 03:05:17;;;;;;;10.90;6.03;;;11.70;99.90;;;;;;4993691;28;20034;-83
2023/10/03 03:07:45;;;;;;;12.45;6.28;;;11.70;99.90;;;;;;4993626;28;20504;-82
2023/10/03 03:10:14;;;;;;;12.57;6.35;;;11.70;99.90;;;;;;4994386;28;20027;-83
2023/10/03 03:12:42;;;;;;;10.10;5.65;;;11.70;99.90;;;;;;4993756;28;20101;-83
2023/10/03 03:15:10;;;;;;;13.68;5.57;;;11.80;99.90;;;;;;4993775;28;20026;-82
2023/10/03 03:17:35;;;;;;;11.02;7.43;;;11.70;99.90;;;;;;4995698;28;20404;-83
2023/10/03 03:20:17;;;;;;;14.70;6.43;;;11.80;99.90;;;;;;4993836;28;20033;-83
2023/10/03 03:22:47;;;;;;;14.18;5.70;;;11.80;99.90;;;;;;4994071;28;20034;-83
2023/10/03 03:25:19;;;;;;;15.68;7.93;;;11.80;99.90;;;;;;4995417;28;20022;-83
2023/10/03 03:27:45;;;;;;;16.02;6.68;;;11.70;99.90;;;;;;4995338;28;20057;-83
2023/10/03 03:32:53;;;;;;;9.68;5.90;;;11.70;99.90;;;;;;4994975;28;20025;-83
2023/10/03 03:35:24;;;;;;;11.77;6.15;;;11.70;99.90;;;;;;4993814;28;20392;-83
2023/10/03 03:37:56;;;;;;;13.30;6.70;;;11.60;99.90;;;;;;4994386;28;20022;-83
2023/10/03 03:40:29;;;;;;;11.65;6.05;;;11.60;99.90;;;;;;4995498;28;20025;-83
2023/10/03 03:42:58;;;;;;;11.80;6.07;;;11.70;99.90;;;;;;4994358;28;20485;-83
2023/10/03 03:45:24;;;;;;;12.23;5.80;;;11.60;99.90;;;;;;4993906;28;20489;-83
2023/10/03 03:47:52;;;;;;;11.23;6.63;;;11.60;99.90;;;;;;4998207;28;20050;-84
2023/10/03 03:50:18;;;;;;;12.23;7.00;;;11.60;99.90;;;;;;5000739;28;20038;-83
2023/10/03 03:52:44;;;;;;;12.75;6.28;;;11.70;99.90;;;;;;5001061;28;20053;-83
2023/10/03 03:55:11;;;;;;;10.77;6.03;;;11.70;99.90;;;;;;4999835;28;20042;-83
2023/10/03 03:57:37;;;;;;;11.38;6.07;;;11.70;99.90;;;;;;5001241;28;20473;-83
2023/10/03 04:00:18;;;;;;;13.57;6.45;;;11.60;99.90;;;;;;5000680;28;20093;-83
2023/10/03 04:02:43;;;;;;;15.20;6.35;;;11.60;99.90;;;;;;4999715;28;20030;-83
2023/10/03 04:05:12;;;;;;;15.18;6.82;;;11.60;99.90;;;;;;4999128;28;20031;-83
2023/10/03 04:07:38;;;;;;;11.10;6.03;;;11.60;99.90;;;;;;4999784;28;20030;-83
2023/10/03 04:10:09;;;;;;;19.27;7.00;;;11.60;99.90;;;;;;4999512;28;20061;-83
2023/10/03 04:12:41;;;;;;;13.75;6.93;;;11.60;99.90;;;;;;4999479;28;20028;-83
2023/10/03 04:15:19;;;;;;;13.38;6.60;;;11.50;99.90;;;;;;5001202;28;20029;-84
2023/10/03 04:17:51;;;;;;;10.45;5.65;;;11.50;99.90;;;;;;4999735;28;20030;-83
2023/10/03 04:20:28;;;;;;;9.40;5.85;;;11.50;99.90;;;;;;4998421;28;20042;-83
2023/10/03 04:22:53;;;;;;;10.60;6.07;;;11.50;99.90;;;;;;5000642;28;20023;-83
2023/10/03 04:25:22;;;;;;;9.07;5.50;;;11.60;99.90;;;;;;4999470;28;20411;-84
2023/10/03 04:27:49;;;;;;;12.93;4.90;;;11.60;99.90;;;;;;4999121;28;20031;-83
2023/10/03 04:30:16;;;;;;;8.63;5.47;;;11.50;99.90;;;;;;4999982;28;20022;-83
2023/10/03 04:32:42;;;;;;;12.10;5.70;;;11.50;99.90;;;;;;4999475;28;20038;-83
2023/10/03 04:35:13;;;;;;;9.10;5.20;;;11.50;99.90;;;;;;5000146;28;20040;-83
2023/10/03 04:37:42;;;;;;;12.82;6.32;;;11.50;99.90;;;;;;5000772;28;20243;-83
2023/10/03 04:40:14;;;;;;;10.20;5.90;;;11.50;99.90;;;;;;5002928;28;20030;-83
2023/10/03 04:42:41;;;;;;;16.20;6.70;;;11.50;99.90;;;;;;5000737;28;20038;-82
2023/10/03 04:45:10;;;;;;;9.52;5.68;;;11.50;99.90;;;;;;5004810;28;20030;-82
2023/10/03 04:47:43;;;;;;;10.57;5.55;;;11.50;99.90;;;;;;5006278;28;20018;-83
2023/10/03 04:50:10;;;;;;;10.48;5.97;;;11.40;99.90;;;;;;5005426;28;20081;-83
2023/10/03 04:52:37;;;;;;;10.23;5.88;;;11.40;99.90;;;;;;5004978;28;20049;-82
2023/10/03 04:55:03;;;;;;;10.90;6.80;;;11.40;99.90;;;;;;5004571;28;20037;-82
2023/10/03 04:57:28;;;;;;;20.30;5.50;;;11.40;99.90;;;;;;5002850;28;20077;-82
2023/10/03 04:59:59;;;;;;;16.73;5.50;;;11.40;99.90;;;;;;5003610;28;20030;-82
2023/10/03 05:02:30;;;;;;;14.00;5.85;;;11.40;99.90;;;;;;5004538;28;20026;-82
2023/10/03 05:04:56;;;;;;;17.38;5.88;;;11.50;99.90;;;;;;5004457;28;20026;-83
2023/10/03 05:07:25;;;;;;;11.77;5.47;;;11.50;99.90;;;;;;5003586;28;20389;-82
2023/10/03 05:09:51;;;;;;;17.17;7.25;;;11.50;99.90;;;;;;5003191;28;20022;-82
2023/10/03 05:12:18;;;;;;;17.63;8.20;;;11.60;99.90;;;;;;5003361;28;20085;-83
2023/10/03 05:14:46;;;;;;;17.20;5.78;;;11.50;99.90;;;;;;5003311;28;20022;-83
2023/10/03 05:17:12;;;;;;;13.45;5.47;;;11.50;99.90;;;;;;5004413;28;20061;-82
2023/10/03 05:19:39;;;;;;;11.82;6.15;;;11.60;99.90;;;;;;5002481;28;20035;-82
2023/10/03 05:22:08;;;;;;;10.70;5.90;;;11.60;99.90;;;;;;5002163;28;20034;-83
2023/10/03 05:24:35;;;;;;;12.38;5.55;;;11.60;99.90;;;;;;5002066;28;20040;-82
2023/10/03 05:27:00;;;;;;;10.55;6.13;;;11.60;99.90;;;;;;5003097;28;20019;-82
2023/10/03 05:29:29;;;;;;;10.80;5.70;;;11.60;99.90;;;;;;5003153;28;20032;-82
2023/10/03 05:31:55;;;;;;;7.38;5.22;;;11.50;99.90;;;;;;5003723;28;20037;-83
2023/10/03 05:34:22;;;;;;;12.75;5.10;;;11.60;99.90;;;;;;5002260;28;20033;-82
2023/10/03 05:36:48;;;;;;;9.63;5.30;;;11.60;99.90;;;;;;5002366;28;20084;-83
2023/10/03 05:39:15;;;;;;;11.80;4.85;;;11.50;99.90;;;;;;5002322;28;20104;-83
2023/10/03 05:41:42;;;;;;;10.82;4.57;;;11.50;99.90;;;;;;5001731;28;20037;-83
2023/10/03 05:44:12;;;;;;;10.30;5.45;;;11.60;99.90;;;;;;5001879;28;20473;-83
2023/10/03 05:46:42;;;;;;;13.00;5.22;;;11.60;99.90;;;;;;5002006;28;20042;-83
2023/10/03 05:49:09;;;;;;;10.93;4.25;;;11.60;99.90;;;;;;5003154;28;20022;-83
2023/10/03 05:51:35;;;;;;;12.07;5.43;;;11.70;99.90;;;;;;5001290;28;20035;-83
2023/10/03 05:54:04;;;;;;;13.93;4.88;;;11.70;99.90;;;;;;5001379;28;20077;-83
2023/10/03 05:56:30;;;;;;;7.80;4.78;;;11.80;99.90;;;;;;5000628;28;20058;-83
2023/10/03 05:58:56;;;;;;;8.73;7.30;;;11.80;99.90;;;;;;5001216;28;20049;-83
2023/10/03 06:01:21;;;;;;;7.45;5.75;;;11.80;99.90;;;;;;5001491;28;20102;-83
2023/10/03 06:03:47;;;;;;;8.18;5.65;;;11.80;99.90;;;;;;5000484;28;20034;-83
2023/10/03 06:06:14;;;;;;;9.40;6.15;;;11.80;99.90;;;;;;5003242;28;20029;-83
2023/10/03 06:08:40;;;;;;;14.85;6.07;;;11.90;99.90;;;;;;5002222;28;20022;-83
2023/10/03 06:11:06;;;;;;;9.52;6.43;;;11.90;99.90;;;;;;5001401;28;20037;-83
2023/10/03 06:13:31;;;;;;;11.57;6.47;;;11.90;99.90;;;;;;5003580;28;20097;-83
2023/10/03 06:15:59;;;;;;;8.15;5.80;;;12.00;99.90;;;;;;5000751;28;20396;-83
2023/10/03 06:18:27;;;;;;;7.45;5.93;;;12.00;99.90;;;;;;5001449;28;20552;-82
2023/10/03 06:20:53;;;;;;;8.20;5.45;;;12.10;99.90;;;;;;5001262;28;20030;-82
2023/10/03 06:23:18;;;;;;;8.45;6.13;;;12.20;99.90;;;;;;5001085;28;20026;-82
2023/10/03 06:25:44;;;;;;;5.63;4.97;;;12.20;99.90;;;;;;5001380;28;20022;-83
2023/10/03 06:28:09;;;;;;;8.13;5.03;;;12.20;99.90;;;;;;5001460;28;20023;-83
2023/10/03 06:30:38;;;;;;;10.10;5.45;;;12.30;99.90;;;;;;5002979;28;20023;-83
2023/10/03 06:33:05;;;;;;;7.13;4.72;;;12.30;99.90;;;;;;5000962;28;20498;-83
2023/10/03 06:35:32;;;;;;;12.13;5.93;;;12.40;99.90;;;;;;5001495;28;20030;-83
2023/10/03 06:37:57;;;;;;;6.03;4.97;;;12.40;99.90;;;;;;5001265;28;20473;-83
2023/10/03 06:40:23;;;;;;;13.05;6.10;;;12.50;99.90;;;;;;5001739;28;20061;-83
2023/10/03 06:42:49;;;;;;;9.43;6.15;;;12.50;99.90;;;;;;5001252;28;20041;-83
2023/10/03 06:45:14;;;;;;;7.07;5.47;;;12.60;99.90;;;;;;5000689;28;20473;-82
2023/10/03 06:47:40;;;;;;;10.68;6.07;;;12.60;99.90;;;;;;5000684;28;20073;-82
2023/10/03 06:50:07;;;;;;;7.47;5.30;;;12.60;99.90;;;;;;5001631;28;20477;-83
2023/10/03 06:52:34;;;;;;;10.57;6.15;;;12.70;99.90;;;;;;5043011;23;20046;-81
2023/10/03 06:55:03;;;;;;;10.75;5.97;;;12.90;99.90;;;;;;5033724;28;20090;-78
2023/10/03 06:57:29;;;;;;;9.48;5.82;;;12.80;99.90;;;;;;5019634;28;20476;-79
2023/10/03 06:59:55;;;;;;;8.38;5.57;;;13.00;99.90;;;;;;5019450;28;20037;-79
2023/10/03 07:02:21;;;;;;;12.60;5.70;;;12.90;99.90;;;;;;5018389;28;20029;-81
2023/10/03 07:04:47;;;;;;;12.05;5.75;;;13.00;99.90;;;;;;5016612;28;20030;-79
2023/10/03 07:07:12;;;;;;;7.93;5.45;;;13.00;99.90;;;;;;5017901;28;20053;-77
2023/10/03 07:09:38;;;;;;;6.78;4.93;;;13.10;99.90;;;;;;5019552;28;20029;-79
2023/10/03 07:12:07;;;;;;;10.75;5.85;;;13.20;99.90;;;;;;5019198;28;20101;-77
2023/10/03 07:14:35;;;;;;;7.68;5.45;;;13.40;99.90;;;;;;5018530;28;20128;-75
2023/10/03 07:17:03;;;;;;;7.85;4.78;;;13.40;99.90;;;;;;5014975;28;20030;-78
2023/10/03 07:19:31;;;;;;;7.43;5.20;;;13.40;99.90;;;;;;5016270;28;20056;-77
2023/10/03 07:21:57;;;;;;;8.32;4.78;;;13.60;99.90;;;;;;5015039;28;20485;-79
2023/10/03 07:24:28;;;;;;;7.30;5.10;;;13.60;99.90;;;;;;5015091;28;20037;-80
2023/10/03 07:26:54;;;;;;;11.05;6.30;;;13.80;99.90;;;;;;5015270;28;20025;-78
2023/10/03 07:29:21;;;;;;;9.75;6.10;;;13.80;99.90;;;;;;5016051;28;20025;-79
2023/10/03 07:31:47;;;;;;;9.35;5.75;;;13.70;99.90;;;;;;5014826;28;20128;-76
2023/10/03 07:34:17;;;;;;;10.02;6.10;;;13.90;99.90;;;;;;5014837;28;20034;-78
2023/10/03 07:36:43;;;;;;;10.02;5.20;;;13.90;99.90;;;;;;5016918;28;20021;-79
2023/10/03 07:39:09;;;;;;;8.52;6.47;;;14.10;99.90;;;;;;5015672;28;20094;-80
2023/10/03 07:41:35;;;;;;;11.80;6.05;;;14.10;99.90;;;;;;5017115;28;20069;-78
2023/10/03 07:44:01;;;;;;;9.90;5.70;;;14.20;99.90;;;;;;5021179;28;20026;-79
2023/10/03 07:46:27;;;;;;;8.70;6.50;;;14.30;99.90;;;;;;5016988;28;20022;-77
2023/10/03 07:48:53;;;;;;;6.80;5.63;;;14.30;99.90;;;;;;5016346;28;20022;-78
2023/10/03 07:51:25;;;;;;;7.80;5.45;;;14.50;99.90;;;;;;5016273;28;20520;-79
2023/10/03 07:53:52;;;;;;;9.38;6.57;;;14.50;99.90;;;;;;5013899;28;20030;-78
2023/10/03 07:56:30;;;;;;;8.95;6.78;;;14.60;99.90;;;;;;5013746;28;20033;-78
2023/10/03 07:58:56;;;;;;;9.52;6.43;;;14.70;99.90;;;;;;5015742;28;20048;-77
2023/10/03 08:01:26;;;;;;;12.23;7.43;;;14.90;99.90;;;;;;5015088;28;20022;-78
2023/10/03 08:03:55;;;;;;;9.90;6.90;;;14.90;99.90;;;;;;5015949;28;20022;-79
2023/10/03 08:06:25;;;;;;;11.00;7.68;;;15.00;99.90;;;;;;5015831;28;20495;-79
2023/10/03 08:09:00;;;;;;;11.73;6.78;;;15.10;99.90;;;;;;5014073;28;20484;-78
2023/10/03 08:11:30;;;;;;;;;;;15.10;99.90;;;;;;5015482;28;20494;-79
2023/10/03 08:13:56;;;;;;;12.43;7.15;;;15.20;99.90;;;;;;5012984;28;19909;-77
2023/10/03 08:16:22;;;;;;;11.68;7.05;;;15.30;99.90;;;;;;5013814;28;20030;-79
2023/10/03 08:18:58;;;;;;;12.25;8.35;;;15.30;99.90;;;;;;5015381;28;20025;-78
2023/10/03 08:21:27;;;;;;;11.02;8.63;;;15.40;99.90;;;;;;5019265;28;20034;-79
2023/10/03 08:23:57;;;;;;;12.52;7.75;;;15.70;99.90;;;;;;5018950;28;20029;-79
2023/10/03 08:26:25;;;;;;;8.93;7.10;;;15.90;99.90;;;;;;5017764;28;20022;-79
2023/10/03 08:29:04;;;;;;;12.48;8.80;;;16.10;99.90;;;;;;5017596;28;20479;-79
2023/10/03 08:31:30;;;;;;;13.82;9.40;;;16.20;99.90;;;;;;5019679;28;20014;-79
2023/10/03 08:33:56;;;;;;;12.25;8.48;;;16.40;99.90;;;;;;5018330;28;20029;-77
2023/10/03 08:36:23;;;;;;;13.32;9.48;;;16.40;99.90;;;;;;5019247;28;20072;-79
2023/10/03 08:38:49;;;;;;;15.32;9.23;;;16.40;99.90;;;;;;5019876;28;20026;-79
2023/10/03 08:41:25;;;;;;;14.38;9.70;;;16.40;99.90;;;;;;5018920;28;20038;-78
2023/10/03 08:43:56;;;;;;;13.77;8.48;;;16.40;99.90;;;;;;5019228;28;20049;-79
2023/10/03 08:46:28;;;;;;;16.10;9.55;;;16.50;99.90;;;;;;5016488;28;20476;-78
2023/10/03 08:49:00;;;;;;;16.08;10.13;;;16.60;99.90;;;;;;5017140;28;20113;-79
2023/10/03 08:51:33;;;;;;;16.17;9.55;;;16.60;99.90;;;;;;5018155;28;20061;-80
2023/10/03 08:54:10;;;;;;;18.08;10.02;;;16.60;99.90;;;;;;5018017;28;20026;-81
2023/10/03 08:56:36;;;;;;;14.57;10.05;;;16.70;99.90;;;;;;5016528;28;20137;-80
2023/10/03 08:59:09;;;;;;;13.35;8.57;;;16.70;99.90;;;;;;5017349;28;20088;-78
2023/10/03 09:01:43;;;;;;;14.38;9.90;;;16.80;99.90;;;;;;5016993;28;20073;-80
2023/10/03 09:04:15;;;;;;;15.23;10.02;;;17.00;99.90;;;;;;5016862;28;20026;-78
2023/10/03 09:06:45;;;;;;;16.50;10.45;;;17.20;99.90;;;;;;5015862;28;20045;-78
2023/10/03 09:09:16;;;;;;;14.65;9.70;;;17.30;99.90;;;;;;5018731;28;20228;-79
2023/10/03 09:11:44;;;;;;;14.98;9.05;;;17.50;99.90;;;;;;5032169;28;20033;-77
2023/10/03 09:14:14;;;;;;;13.95;8.57;;;17.60;99.90;;;;;;5030817;28;20113;-79
2023/10/03 09:16:39;;;;;;;13.43;8.20;;;17.70;99.90;;;;;;5023615;28;20392;-77
2023/10/03 09:19:09;;;;;;;14.57;8.27;;;17.90;99.90;;;;;;5016458;28;20026;-77
2023/10/03 09:21:35;;;;;;;16.48;9.48;;;17.90;99.90;;;;;;5014671;28;20030;-76
2023/10/03 09:24:17;;;;;;;12.23;8.63;;;18.00;99.90;;;;;;5014542;28;20353;-79
2023/10/03 09:26:47;;;;;;;15.05;8.80;;;18.20;99.90;;;;;;5014373;28;20044;-76
2023/10/03 09:29:39;;;;;;;11.55;8.63;;;18.40;99.90;;;;;;5016028;28;20488;-76
2023/10/03 09:32:24;;;;;;;14.57;8.20;;;18.70;99.90;;;;;;5014001;28;20034;-78
2023/10/03 09:34:56;;;;;;;12.40;8.05;;;18.90;99.90;;;;;;5015284;28;20022;-78
2023/10/03 09:37:30;;;;;;;12.10;8.63;;;19.00;99.90;;;;;;5015096;28;20022;-78
2023/10/03 09:40:00;;;;;;;14.82;9.07;;;19.20;99.90;;;;;;5013872;28;20026;-76
2023/10/03 09:42:27;;;;;;;14.77;7.78;;;19.30;99.90;;;;;;5015025;28;20026;-77
2023/10/03 09:44:59;;;;;;;13.65;8.10;;;19.50;99.90;;;;;;5013323;28;20026;-76
2023/10/03 09:47:31;;;;;;;13.80;7.85;;;19.70;99.90;;;;;;5014734;28;20022;-77
2023/10/03 09:50:03;;;;;;;13.77;7.88;;;19.90;99.90;;;;;;5013182;28;20470;-77
2023/10/03 09:52:30;;;;;;;12.45;8.20;;;20.00;99.90;;;;;;5013516;28;20054;-78
2023/10/03 09:55:17;;;;;;;12.77;7.82;;;20.00;99.90;;;;;;5013882;28;20274;-78
2023/10/03 09:57:46;;;;;;;13.35;7.05;;;20.10;99.90;;;;;;5015163;28;20443;-77
2023/10/03 10:00:25;;;;;;;15.02;7.63;;;20.20;99.90;;;;;;5015609;28;20049;-77
2023/10/03 10:02:55;;;;;;;16.33;7.97;;;20.40;99.90;;;;;;5014124;28;20056;-77
2023/10/03 10:05:23;;;;;;;14.90;7.13;;;20.50;99.90;;;;;;5015393;28;20022;-76
2023/10/03 10:08:08;;;;;;;11.65;7.15;;;20.50;99.90;;;;;;5015132;28;20026;-78
2023/10/03 10:10:35;;;;;;;19.67;8.13;;;20.50;99.90;;;;;;5014759;28;20026;-77
2023/10/03 10:13:23;;;;;;;15.77;7.32;;;20.60;99.90;;;;;;5014635;28;20041;-80
2023/10/03 10:16:42;;;;;;;12.27;7.15;;;20.80;99.90;;;;;;5013010;28;20026;-76
2023/10/03 10:19:01;;;;;;;14.98;8.18;;;20.90;99.90;;;;;;5012375;28;20061;-77
2023/10/03 10:21:39;;;;;;;14.20;8.52;;;21.00;99.90;;;;;;5014633;28;20072;-79
2023/10/03 10:24:11;;;;;;;12.98;8.63;;;20.90;99.90;;;;;;5015105;28;20083;-77
2023/10/03 10:26:38;;;;;;;11.50;6.97;;;21.10;99.90;;;;;;5021062;28;20002;-76
2023/10/03 10:29:14;;;;;;;11.70;7.05;;;21.10;99.90;;;;;;5030610;28;20041;-77
2023/10/03 10:31:44;;;;;;;16.45;8.05;;;21.30;99.90;;;;;;5014513;28;20101;-77
2023/10/03 10:34:21;;;;;;;10.60;6.50;;;21.30;99.90;;;;;;5015052;28;20010;-78
2023/10/03 10:37:04;;;;;;;12.73;7.35;;;21.40;99.90;;;;;;5013716;28;20022;-78
2023/10/03 10:39:56;;;;;;;14.60;6.82;;;21.50;99.90;;;;;;5014541;28;20018;-77
2023/10/03 10:42:25;;;;;;;10.20;6.43;;;21.50;99.90;;;;;;5014314;28;20109;-76
2023/10/03 10:45:17;;;;;;;14.40;6.22;;;21.50;99.90;;;;;;5014644;28;20028;-75
2023/10/03 10:47:49;;;;;;;10.35;6.65;;;21.70;99.90;;;;;;5006663;28;20037;-76
2023/10/03 10:50:17;;;;;;;11.23;5.88;;;21.70;99.90;;;;;;5013497;28;20492;-78
2023/10/03 10:52:53;;;;;;;13.10;7.57;;;21.70;99.90;;;;;;5015263;28;20117;-78
2023/10/03 10:55:29;;;;;;;13.30;7.32;;;21.70;99.90;;;;;;5015513;28;20083;-77
2023/10/03 10:58:03;;;;;;;12.77;6.07;;;21.80;99.90;;;;;;5014565;28;20066;-78
2023/10/03 11:00:33;;;;;;;15.73;7.00;;;21.90;99.90;;;;;;5016767;28;20026;-78
2023/10/03 11:03:00;;;;;;;11.48;6.22;;;22.10;99.90;;;;;;5026286;28;20010;-79
2023/10/03 11:05:30;;;;;;;11.13;6.80;;;22.10;99.90;;;;;;5036209;28;20036;-78
2023/10/03 11:07:57;;;;;;;11.95;6.72;;;22.20;99.90;;;;;;5035250;28;20089;-78
2023/10/03 11:10:23;;;;;;;12.27;7.15;;;22.30;99.90;;;;;;5035749;28;20307;-78
2023/10/03 11:12:59;;;;;;;11.05;6.72;;;22.30;99.90;;;;;;5029010;28;20021;-77
2023/10/03 11:15:26;;;;;;;10.52;6.63;;;22.40;99.90;;;;;;5032163;28;20033;-79
2023/10/03 11:17:52;;;;;;;11.90;6.50;;;22.50;99.90;;;;;;5036869;28;20029;-78
2023/10/03 11:20:18;;;;;;;12.80;7.60;;;22.50;99.90;;;;;;5035468;28;20037;-77
2023/10/03 11:22:47;;;;;;;10.93;6.60;;;22.50;99.90;;;;;;5035695;28;20041;-78
2023/10/03 11:25:13;;;;;;;13.98;6.57;;;22.60;99.90;;;;;;5036233;28;20010;-78
2023/10/03 11:27:38;;;;;;;11.80;5.78;;;22.60;99.90;;;;;;5019584;28;20511;-77
2023/10/03 11:30:15;;;;;;;11.10;6.15;;;22.50;99.90;;;;;;5012691;28;20511;-78
2023/10/03 11:32:41;;;;;;;9.88;5.72;;;22.60;99.90;;;;;;5011861;28;20559;-77
2023/10/03 11:35:19;;;;;;;10.98;6.07;;;22.80;99.90;;;;;;5012972;28;20061;-77
2023/10/03 11:37:46;;;;;;;12.40;6.15;;;22.70;99.90;;;;;;5011977;28;20025;-78
2023/10/03 11:40:15;;;;;;;13.45;6.45;;;22.80;99.90;;;;;;5011910;28;20033;-78
2023/10/03 11:42:56;;;;;;;13.57;6.72;;;23.00;99.90;;;;;;5011627;28;20041;-77
2023/10/03 11:45:27;;;;;;;12.00;6.70;;;23.00;98.80;;;;;;5011188;28;20022;-78
2023/10/03 11:48:07;;;;;;;12.02;6.68;;;23.00;99.10;;;;;;5012864;28;20029;-78
2023/10/03 11:50:38;;;;;;;12.68;6.75;;;23.10;99.30;;;;;;5011664;28;20046;-77
2023/10/03 11:53:04;;;;;;;14.57;7.13;;;23.10;98.60;;;;;;5013041;28;20057;-76
2023/10/03 11:55:32;;;;;;;10.57;6.57;;;23.20;98.90;;;;;;5021252;28;20049;-76
2023/10/03 11:58:02;;;;;;;13.68;6.72;;;23.30;98.10;;;;;;5017983;28;20068;-78
2023/10/03 12:00:28;;;;;;;12.45;6.75;;;23.20;97.50;;;;;;5018991;28;20041;-77
2023/10/03 12:02:55;;;;;;;12.80;6.28;;;23.20;97.20;;;;;;5017921;28;20033;-77
2023/10/03 12:05:22;;;;;;;12.38;6.45;;;23.20;97.60;;;;;;5017275;28;20125;-77
2023/10/03 12:07:50;;;;;;;10.15;6.30;;;23.30;98.20;;;;;;5017704;28;20553;-77
2023/10/03 12:10:20;;;;;;;13.35;6.20;;;23.30;97.90;;;;;;5018069;28;20450;-77
2023/10/03 12:12:46;;;;;;;12.73;6.50;;;23.30;97.30;;;;;;5017924;28;20022;-77
2023/10/03 12:15:13;;;;;;;13.32;7.00;;;23.30;97.60;;;;;;5018592;28;20025;-77
2023/10/03 12:17:43;;;;;;;13.57;7.25;;;23.30;98.00;;;;;;5019195;28;20132;-78
2023/10/03 12:20:14;;;;;;;13.48;7.40;;;23.40;97.50;;;;;;5017393;28;20032;-76
2023/10/03 12:22:44;;;;;;;10.55;6.03;;;23.50;98.20;;;;;;5017486;28;20116;-78
2023/10/03 12:25:15;;;;;;;12.43;6.97;;;23.60;98.40;;;;;;5017217;28;20057;-77
2023/10/03 12:27:42;;;;;;;11.75;6.55;;;23.70;97.10;;;;;;5017453;28;20045;-76
2023/10/03 12:30:12;;;;;;;12.55;6.30;;;23.70;95.90;;;;;;5017753;28;20026;-77
2023/10/03 12:32:38;;;;;;;13.73;6.93;;;23.70;96.20;;;;;;5017601;28;20545;-78
2023/10/03 12:35:06;;;;;;;10.25;6.90;;;23.70;96.20;;;;;;5017184;28;20466;-77
2023/10/03 12:37:32;;;;;;;13.52;7.13;;;23.80;96.70;;;;;;5018792;28;20017;-78
2023/10/03 12:40:04;;;;;;;11.55;7.03;;;24.00;97.10;;;;;;5017433;28;20412;-77
2023/10/03 12:42:29;;;;;;;11.65;6.43;;;24.00;95.80;;;;;;5017127;28;20029;-77
2023/10/03 12:44:57;;;;;;;13.38;7.07;;;24.00;95.50;;;;;;5018282;28;20030;-78
2023/10/03 12:47:23;;;;;;;13.02;6.55;;;24.10;95.90;;;;;;5017302;28;20026;-77
2023/10/03 12:49:49;;;;;;;11.43;7.00;;;24.10;95.90;;;;;;5018464;28;20084;-78
2023/10/03 12:52:14;;;;;;;10.13;6.32;;;24.10;95.20;;;;;;5039606;22;20512;-81
2023/10/03 12:54:40;;;;;;;13.70;5.40;;;24.10;94.70;;;;;;5035154;28;20021;-81
2023/10/03 12:57:06;;;;;;;7.93;5.28;;;24.10;94.60;;;;;;5035545;28;20030;-83